Time;durP1;ratioP1;P1;durP2;ratioP2;P2;SDS_P1;SDS_P2;PMS_P1;PMS_P2;Temp;Humidity;BMP_temperature;BMP_pressure;BME280_temperature;BME280_humidity;BME280_pressure;Samples;Min_cycle;Max_cycle;Signal;HPM_P1;HPM_P2
2022/09/15 00:01:50;;;;;;;6.32;3.70;;;;;;;;;;5003821;28;20041;-70
2022/09/15 00:04:15;;;;;;;5.97;3.88;;;;;;;;;;5000353;28;20088;-69
2022/09/15 00:06:41;;;;;;;9.10;4.35;;;;;;;;;;5006085;28;20096;-68
2022/09/15 00:09:06;;;;;;;5.28;4.40;;;;;;;;;;5003840;28;20227;-68
2022/09/15 00:11:34;;;;;;;7.05;4.90;;;;;;;;;;4999948;28;20042;-69
2022/09/15 00:14:04;;;;;;;6.50;4.75;;;;;;;;;;5006480;28;20024;-70
2022/09/15 00:16:30;;;;;;;8.43;4.95;;;;;;;;;;5001090;28;20549;-69
2022/09/15 00:18:57;;;;;;;6.20;4.43;;;;;;;;;;4999786;28;20419;-69
2022/09/15 00:21:30;;;;;;;5.75;3.50;;;;;;;;;;5003533;28;20034;-69
2022/09/15 00:23:58;;;;;;;7.80;3.95;;;;;;;;;;4998326;28;20039;-68
2022/09/15 00:26:26;;;;;;;6.13;3.65;;;;;;;;;;4998325;28;20793;-66
2022/09/15 00:28:52;;;;;;;6.72;4.13;;;;;;;;;;5002275;28;20111;-70
2022/09/15 00:31:20;;;;;;;8.20;3.45;;;;;;;;;;5004765;28;20046;-67
2022/09/15 00:33:48;;;;;;;7.72;3.58;;;;;;;;;;5004639;28;20387;-69
2022/09/15 00:36:14;;;;;;;7.10;3.80;;;;;;;;;;5003621;28;20097;-68
2022/09/15 00:38:43;;;;;;;4.70;3.47;;;;;;;;;;5002679;28;20022;-66
2022/09/15 00:41:11;;;;;;;8.02;3.97;;;;;;;;;;5001912;28;20999;-67
2022/09/15 00:43:58;;;;;;;6.35;3.65;;;;;;;;;;5001712;28;20070;-68
2022/09/15 00:46:26;;;;;;;4.15;2.97;;;;;;;;;;5000907;28;20042;-69
2022/09/15 00:49:09;;;;;;;3.58;2.92;;;;;;;;;;5006695;28;20126;-68
2022/09/15 00:51:49;;;;;;;6.30;3.45;;;;;;;;;;5006302;28;20054;-68
2022/09/15 00:54:24;;;;;;;5.93;3.13;;;;;;;;;;5002493;28;20040;-68
2022/09/15 00:56:54;;;;;;;8.27;3.30;;;;;;;;;;5004157;28;20041;-69
2022/09/15 00:59:24;;;;;;;4.82;3.10;;;;;;;;;;5000620;28;20030;-69
2022/09/15 01:01:57;;;;;;;5.60;3.00;;;;;;;;;;5001183;28;20086;-69
2022/09/15 01:04:23;;;;;;;3.42;3.13;;;;;;;;;;4999498;28;20069;-68
2022/09/15 01:06:54;;;;;;;3.90;2.90;;;;;;;;;;4998857;28;20066;-68
2022/09/15 01:09:25;;;;;;;4.65;3.00;;;;;;;;;;5002410;28;20041;-66
2022/09/15 01:11:51;;;;;;;4.43;2.95;;;;;;;;;;4998411;28;20065;-67
2022/09/15 01:14:16;;;;;;;8.93;3.08;;;;;;;;;;5001289;28;20040;-65
2022/09/15 01:16:52;;;;;;;6.40;3.38;;;;;;;;;;5004398;28;20700;-70
2022/09/15 01:19:37;;;;;;;3.80;2.95;;;;;;;;;;5017375;28;21382;-70
2022/09/15 01:22:23;;;;;;;8.60;3.58;;;;;;;;;;5000034;28;20506;-70
2022/09/15 01:25:07;;;;;;;4.30;3.15;;;;;;;;;;5005709;28;20430;-68
2022/09/15 01:28:06;;;;;;;3.75;3.05;;;;;;;;;;5002649;28;20378;-68
2022/09/15 01:30:37;;;;;;;6.22;3.00;;;;;;;;;;5003057;28;20172;-69
2022/09/15 01:33:12;;;;;;;5.50;3.13;;;;;;;;;;5004169;28;20134;-69
2022/09/15 01:35:56;;;;;;;7.70;2.65;;;;;;;;;;4998363;28;20068;-69
2022/09/15 01:38:31;;;;;;;3.08;2.22;;;;;;;;;;5004056;28;20026;-69
2022/09/15 01:40:57;;;;;;;4.82;2.40;;;;;;;;;;4999496;28;20052;-67
2022/09/15 01:43:24;;;;;;;3.25;2.63;;;;;;;;;;5002990;28;20618;-70
2022/09/15 01:45:51;;;;;;;3.90;2.60;;;;;;;;;;5002394;28;20686;-68
2022/09/15 01:48:19;;;;;;;4.32;2.30;;;;;;;;;;4999782;28;20030;-68
2022/09/15 01:50:49;;;;;;;2.30;1.83;;;;;;;;;;5004746;28;20068;-67
2022/09/15 01:53:18;;;;;;;1.80;1.38;;;;;;;;;;5004883;28;20552;-68
2022/09/15 01:55:56;;;;;;;5.75;1.42;;;;;;;;;;5003822;28;20520;-65
2022/09/15 01:58:21;;;;;;;1.73;1.45;;;;;;;;;;5007047;28;20076;-68
2022/09/15 02:00:54;;;;;;;2.92;1.30;;;;;;;;;;5002630;28;20041;-69
2022/09/15 02:03:33;;;;;;;1.65;1.00;;;;;;;;;;5002475;28;20038;-71
2022/09/15 02:06:17;;;;;;;1.20;0.90;;;;;;;;;;5004697;28;20053;-71
2022/09/15 02:08:51;;;;;;;3.88;1.20;;;;;;;;;;5004916;28;20021;-68
2022/09/15 02:11:25;;;;;;;1.50;0.93;;;;;;;;;;4998705;28;20025;-68
2022/09/15 02:14:16;;;;;;;4.38;0.95;;;;;;;;;;5003776;28;20088;-69
2022/09/15 02:16:48;;;;;;;1.58;0.60;;;;;;;;;;4998105;28;20390;-68
2022/09/15 02:19:30;;;;;;;0.93;0.70;;;;;;;;;;5001064;28;20034;-68
2022/09/15 02:22:02;;;;;;;2.53;0.70;;;;;;;;;;5000465;28;20136;-69
2022/09/15 02:24:38;;;;;;;0.70;0.50;;;;;;;;;;4995525;28;20038;-70
2022/09/15 02:27:09;;;;;;;0.40;0.40;;;;;;;;;;5000991;28;20173;-70
2022/09/15 02:29:36;;;;;;;0.95;0.30;;;;;;;;;;5000765;28;20470;-65
2022/09/15 02:32:05;;;;;;;0.90;0.55;;;;;;;;;;5000582;28;20032;-68
2022/09/15 02:34:35;;;;;;;0.60;0.47;;;;;;;;;;5002491;28;20038;-65
2022/09/15 02:37:03;;;;;;;0.75;0.60;;;;;;;;;;4998570;28;20065;-68
2022/09/15 02:39:34;;;;;;;1.23;0.50;;;;;;;;;;5000182;28;20501;-72
2022/09/15 02:42:01;;;;;;;1.45;0.47;;;;;;;;;;4996476;28;20034;-67
2022/09/15 02:44:29;;;;;;;0.85;0.40;;;;;;;;;;5012294;28;20042;-66
2022/09/15 02:46:56;;;;;;;1.45;0.60;;;;;;;;;;4998425;28;20034;-70
2022/09/15 02:49:22;;;;;;;0.95;0.43;;;;;;;;;;4999807;28;20033;-64
2022/09/15 02:51:47;;;;;;;1.35;0.40;;;;;;;;;;4999085;28;20042;-65
2022/09/15 02:54:13;;;;;;;4.00;0.50;;;;;;;;;;4994996;28;20034;-67
2022/09/15 02:56:38;;;;;;;0.50;0.50;;;;;;;;;;5000238;28;20021;-67
2022/09/15 02:59:04;;;;;;;2.65;0.80;;;;;;;;;;5002249;28;20378;-68
2022/09/15 03:01:33;;;;;;;0.88;0.88;;;;;;;;;;5002684;28;20474;-69
2022/09/15 03:04:02;;;;;;;1.48;1.10;;;;;;;;;;5005035;28;20045;-67
2022/09/15 03:06:33;;;;;;;2.20;2.00;;;;;;;;;;4997826;28;20386;-68
2022/09/15 03:09:00;;;;;;;2.97;2.67;;;;;;;;;;5004920;28;20033;-68
2022/09/15 03:11:26;;;;;;;4.40;4.00;;;;;;;;;;5006394;28;20476;-68
2022/09/15 03:13:54;;;;;;;4.57;4.10;;;;;;;;;;5005338;28;20066;-69
2022/09/15 03:16:20;;;;;;;4.90;4.40;;;;;;;;;;5003187;28;20068;-69
2022/09/15 03:18:45;;;;;;;9.13;5.22;;;;;;;;;;4997151;28;20439;-68
2022/09/15 03:21:12;;;;;;;6.35;5.50;;;;;;;;;;5002474;28;20041;-71
2022/09/15 03:23:39;;;;;;;7.88;5.63;;;;;;;;;;5023895;28;20034;-70
2022/09/15 03:26:05;;;;;;;7.30;6.50;;;;;;;;;;5007678;28;20036;-69
2022/09/15 03:28:31;;;;;;;10.43;8.02;;;;;;;;;;5001159;28;20026;-65
2022/09/15 03:30:56;;;;;;;10.98;8.90;;;;;;;;;;5001968;28;20182;-69
2022/09/15 03:33:23;;;;;;;11.98;8.57;;;;;;;;;;5001690;28;20073;-69
2022/09/15 03:35:50;;;;;;;11.10;9.32;;;;;;;;;;4997057;28;20261;-67
2022/09/15 03:38:16;;;;;;;12.98;10.10;;;;;;;;;;5001617;28;20489;-70
2022/09/15 03:40:42;;;;;;;15.57;11.50;;;;;;;;;;5002558;28;20034;-70
2022/09/15 03:43:11;;;;;;;15.48;11.65;;;;;;;;;;4999996;28;20123;-68
2022/09/15 03:45:37;;;;;;;17.27;11.55;;;;;;;;;;5005394;28;20466;-70
2022/09/15 03:48:04;;;;;;;16.48;12.18;;;;;;;;;;5007054;28;20030;-68
2022/09/15 03:50:31;;;;;;;15.55;11.57;;;;;;;;;;5002324;28;20030;-68
2022/09/15 03:52:59;;;;;;;14.88;10.30;;;;;;;;;;5005615;28;20116;-68
2022/09/15 03:55:25;;;;;;;15.30;11.07;;;;;;;;;;5008577;28;20083;-67
2022/09/15 03:57:51;;;;;;;17.98;11.82;;;;;;;;;;5009475;28;20037;-68
2022/09/15 04:00:17;;;;;;;17.83;12.23;;;;;;;;;;5004065;28;20030;-68
2022/09/15 04:02:42;;;;;;;18.45;12.57;;;;;;;;;;5010149;28;20072;-68
2022/09/15 04:05:08;;;;;;;17.60;13.55;;;;;;;;;;5007532;28;20025;-69
2022/09/15 04:07:33;;;;;;;18.25;13.80;;;;;;;;;;5003353;28;20214;-68
2022/09/15 04:09:59;;;;;;;21.58;14.23;;;;;;;;;;5009272;28;20030;-71
2022/09/15 04:12:25;;;;;;;21.23;13.68;;;;;;;;;;5005051;28;20398;-68
2022/09/15 04:14:51;;;;;;;21.40;14.20;;;;;;;;;;5004857;28;20034;-68
2022/09/15 04:17:16;;;;;;;20.50;14.10;;;;;;;;;;5004463;28;20032;-65
2022/09/15 04:19:42;;;;;;;21.45;13.93;;;;;;;;;;5005209;28;20133;-70
2022/09/15 04:22:07;;;;;;;21.90;14.13;;;;;;;;;;5005710;28;20058;-69
2022/09/15 04:24:33;;;;;;;21.50;12.48;;;;;;;;;;5003152;28;20034;-69
2022/09/15 04:26:58;;;;;;;21.13;12.93;;;;;;;;;;5003281;28;20045;-67
2022/09/15 04:29:23;;;;;;;20.67;12.57;;;;;;;;;;5003535;28;20029;-69
2022/09/15 04:31:49;;;;;;;21.88;12.88;;;;;;;;;;4999643;28;20549;-71
2022/09/15 04:34:14;;;;;;;17.15;11.38;;;;;;;;;;5002036;28;20149;-67
2022/09/15 04:36:40;;;;;;;15.68;10.85;;;;;;;;;;5005343;28;20125;-69
2022/09/15 04:39:05;;;;;;;14.77;9.80;;;;;;;;;;5004157;28;20357;-67
2022/09/15 04:41:32;;;;;;;17.80;10.60;;;;;;;;;;5005885;28;20109;-70
2022/09/15 04:43:59;;;;;;;11.77;8.02;;;;;;;;;;5003225;28;20493;-65
2022/09/15 04:46:24;;;;;;;12.20;7.55;;;;;;;;;;5001433;28;20034;-70
2022/09/15 04:48:50;;;;;;;10.63;7.55;;;;;;;;;;5002712;28;20048;-70
2022/09/15 04:51:18;;;;;;;14.13;7.68;;;;;;;;;;5003868;28;20038;-69
2022/09/15 04:53:44;;;;;;;11.75;6.57;;;;;;;;;;5003891;28;20144;-65
2022/09/15 04:56:13;;;;;;;15.05;8.77;;;;;;;;;;5005571;28;20018;-66
2022/09/15 04:58:44;;;;;;;17.45;6.93;;;;;;;;;;5005441;28;20068;-65
2022/09/15 05:01:16;;;;;;;9.80;6.35;;;;;;;;;;5002708;28;20037;-68
2022/09/15 05:03:42;;;;;;;8.80;6.10;;;;;;;;;;5002361;28;20556;-69
2022/09/15 05:06:10;;;;;;;8.70;5.68;;;;;;;;;;5003704;28;20414;-66
2022/09/15 05:08:35;;;;;;;10.00;5.80;;;;;;;;;;5004424;28;20034;-66
2022/09/15 05:11:05;;;;;;;14.13;6.70;;;;;;;;;;5003352;28;20030;-65
2022/09/15 05:13:31;;;;;;;10.75;5.75;;;;;;;;;;5005485;28;20057;-69
2022/09/15 05:16:03;;;;;;;7.95;6.03;;;;;;;;;;5002532;28;20113;-68
2022/09/15 05:18:30;;;;;;;9.27;4.30;;;;;;;;;;5002887;28;20057;-70
2022/09/15 05:21:03;;;;;;;8.68;4.97;;;;;;;;;;5005311;28;20051;-69
2022/09/15 05:23:29;;;;;;;7.72;5.10;;;;;;;;;;5002866;28;20029;-69
2022/09/15 05:25:59;;;;;;;9.75;5.25;;;;;;;;;;5004212;28;20520;-69
2022/09/15 05:28:25;;;;;;;11.32;5.45;;;;;;;;;;5004179;28;20459;-69
2022/09/15 05:30:52;;;;;;;9.55;4.85;;;;;;;;;;5002760;28;20084;-70
2022/09/15 05:33:19;;;;;;;9.20;4.85;;;;;;;;;;5002988;28;20413;-70
2022/09/15 05:35:53;;;;;;;8.65;4.65;;;;;;;;;;5000195;28;20072;-70
2022/09/15 05:38:18;;;;;;;6.47;4.43;;;;;;;;;;5003571;28;20038;-70
2022/09/15 05:40:44;;;;;;;7.20;4.50;;;;;;;;;;5004251;28;20058;-68
2022/09/15 05:43:10;;;;;;;8.82;5.07;;;;;;;;;;5004907;28;20042;-68
2022/09/15 05:45:35;;;;;;;13.85;5.70;;;;;;;;;;5000891;28;20038;-69
2022/09/15 05:48:02;;;;;;;10.57;5.25;;;;;;;;;;5002013;28;20045;-71
2022/09/15 05:50:27;;;;;;;9.52;5.55;;;;;;;;;;4999278;28;20033;-68
2022/09/15 05:52:53;;;;;;;7.55;4.95;;;;;;;;;;5006161;28;20038;-70
2022/09/15 05:55:18;;;;;;;11.27;4.97;;;;;;;;;;5003353;28;20037;-69
2022/09/15 05:57:44;;;;;;;6.47;4.10;;;;;;;;;;4999757;28;20469;-64
2022/09/15 06:00:10;;;;;;;9.82;4.20;;;;;;;;;;5002320;28;20100;-68
2022/09/15 06:02:35;;;;;;;13.80;5.60;;;;;;;;;;5004840;28;20030;-69
2022/09/15 06:05:02;;;;;;;6.45;4.45;;;;;;;;;;5005363;28;20355;-66
2022/09/15 06:07:27;;;;;;;5.13;3.92;;;;;;;;;;5018475;28;20100;-72
2022/09/15 06:09:53;;;;;;;8.20;4.03;;;;;;;;;;5004764;28;20080;-68
2022/09/15 06:12:18;;;;;;;6.60;4.30;;;;;;;;;;5004777;28;20045;-69
2022/09/15 06:14:44;;;;;;;6.78;4.05;;;;;;;;;;5005298;28;20033;-71
2022/09/15 06:17:10;;;;;;;9.45;4.13;;;;;;;;;;5002636;28;20469;-71
2022/09/15 06:19:35;;;;;;;6.07;3.10;;;;;;;;;;5007665;28;20038;-70
2022/09/15 06:22:00;;;;;;;6.80;3.60;;;;;;;;;;4996602;28;20367;-72
2022/09/15 06:24:26;;;;;;;8.30;3.97;;;;;;;;;;4980171;28;20703;-70
2022/09/15 06:26:51;;;;;;;7.18;4.10;;;;;;;;;;4978404;28;20046;-72
2022/09/15 06:29:17;;;;;;;7.63;4.00;;;;;;;;;;4985475;28;20025;-70
2022/09/15 06:31:42;;;;;;;4.93;3.13;;;;;;;;;;5000527;28;20506;-71
2022/09/15 06:34:10;;;;;;;7.72;3.80;;;;;;;;;;5000328;28;20030;-72
2022/09/15 06:36:37;;;;;;;4.50;3.10;;;;;;;;;;4998915;28;20037;-72
2022/09/15 06:39:03;;;;;;;6.60;2.80;;;;;;;;;;4999496;28;20088;-70
2022/09/15 06:41:28;;;;;;;9.55;3.05;;;;;;;;;;4999877;28;20030;-71
2022/09/15 06:43:54;;;;;;;8.07;2.88;;;;;;;;;;5003405;28;20486;-67
2022/09/15 06:46:23;;;;;;;8.88;2.47;;;;;;;;;;4996772;28;20042;-71
2022/09/15 06:48:50;;;;;;;5.30;2.80;;;;;;;;;;5020622;28;20037;-72
2022/09/15 06:51:18;;;;;;;6.38;2.80;;;;;;;;;;5000919;28;20033;-72
2022/09/15 06:53:45;;;;;;;5.00;2.45;;;;;;;;;;5000528;28;20029;-70
2022/09/15 06:56:16;;;;;;;7.43;2.63;;;;;;;;;;4998448;28;20100;-72
2022/09/15 06:58:43;;;;;;;8.50;2.70;;;;;;;;;;5002307;28;20038;-73
2022/09/15 07:01:11;;;;;;;7.05;2.70;;;;;;;;;;4998528;28;20394;-67
2022/09/15 07:03:38;;;;;;;4.90;2.33;;;;;;;;;;5000049;28;20045;-69
2022/09/15 07:06:05;;;;;;;4.68;2.90;;;;;;;;;;5000056;28;20458;-70
2022/09/15 07:08:30;;;;;;;5.70;2.80;;;;;;;;;;4996625;28;20517;-69
2022/09/15 07:10:56;;;;;;;5.22;2.58;;;;;;;;;;4997547;28;20429;-73
2022/09/15 07:13:23;;;;;;;8.98;2.63;;;;;;;;;;5002527;28;20581;-70
2022/09/15 07:15:50;;;;;;;6.95;2.83;;;;;;;;;;4996909;28;20489;-72
2022/09/15 07:18:16;;;;;;;4.60;3.00;;;;;;;;;;4999560;28;20497;-69
2022/09/15 07:20:45;;;;;;;4.72;2.80;;;;;;;;;;5001716;28;20029;-71
2022/09/15 07:23:10;;;;;;;4.15;2.55;;;;;;;;;;5002289;28;20447;-68
2022/09/15 07:25:36;;;;;;;7.60;2.75;;;;;;;;;;4999328;28;20044;-72
2022/09/15 07:28:02;;;;;;;6.57;2.45;;;;;;;;;;5003744;28;20509;-71
2022/09/15 07:30:27;;;;;;;5.90;2.38;;;;;;;;;;5003207;28;20061;-73
2022/09/15 07:32:55;;;;;;;3.80;2.50;;;;;;;;;;5000223;28;20118;-67
2022/09/15 07:35:21;;;;;;;5.63;2.45;;;;;;;;;;5001829;28;20021;-65
2022/09/15 07:37:47;;;;;;;5.80;2.50;;;;;;;;;;5004102;28;20034;-70
2022/09/15 07:40:13;;;;;;;5.47;2.67;;;;;;;;;;4998184;28;20477;-70
2022/09/15 07:42:43;;;;;;;5.43;2.60;;;;;;;;;;5000671;28;20030;-66
2022/09/15 07:45:10;;;;;;;5.82;2.70;;;;;;;;;;5005348;28;20502;-65
2022/09/15 07:47:36;;;;;;;7.05;3.00;;;;;;;;;;5002115;28;20034;-72
2022/09/15 07:50:01;;;;;;;4.95;2.70;;;;;;;;;;5003008;28;20029;-73
2022/09/15 07:52:27;;;;;;;5.00;2.45;;;;;;;;;;5002300;28;20045;-71
2022/09/15 07:54:52;;;;;;;6.68;2.97;;;;;;;;;;4997665;28;20703;-71
2022/09/15 07:57:18;;;;;;;5.97;2.67;;;;;;;;;;5004292;28;20030;-65
2022/09/15 07:59:43;;;;;;;5.95;2.90;;;;;;;;;;5002119;28;20022;-70
2022/09/15 08:02:17;;;;;;;11.02;3.42;;;;;;;;;;5003342;28;20382;-70
2022/09/15 08:04:43;;;;;;;5.97;3.20;;;;;;;;;;5001753;28;20365;-67
2022/09/15 08:07:09;;;;;;;4.63;2.92;;;;;;;;;;5004398;28;20377;-73
2022/09/15 08:09:39;;;;;;;8.57;3.28;;;;;;;;;;5003352;28;20414;-71
2022/09/15 08:12:06;;;;;;;7.90;3.50;;;;;;;;;;5004567;28;20030;-74
2022/09/15 08:14:32;;;;;;;9.57;3.45;;;;;;;;;;5005956;28;20022;-71
2022/09/15 08:17:03;;;;;;;9.70;4.00;;;;;;;;;;5001198;28;20026;-71
2022/09/15 08:19:33;;;;;;;5.05;3.30;;;;;;;;;;5002690;28;20030;-70
2022/09/15 08:21:59;;;;;;;7.57;3.90;;;;;;;;;;4997623;28;20383;-66
2022/09/15 08:24:25;;;;;;;10.25;4.82;;;;;;;;;;4998429;28;20034;-71
2022/09/15 08:26:51;;;;;;;9.90;5.30;;;;;;;;;;5014922;28;20038;-68
2022/09/15 08:29:17;;;;;;;10.88;5.78;;;;;;;;;;5001727;28;20398;-71
2022/09/15 08:31:44;;;;;;;10.93;5.40;;;;;;;;;;4999726;28;20030;-65
2022/09/15 08:34:14;;;;;;;8.85;5.85;;;;;;;;;;5013765;28;20034;-69
2022/09/15 08:36:40;;;;;;;10.05;5.18;;;;;;;;;;4996424;28;20376;-71
2022/09/15 08:39:05;;;;;;;10.10;5.35;;;;;;;;;;5002305;28;20045;-69
2022/09/15 08:41:43;;;;;;;9.82;5.53;;;;;;;;;;5003761;28;20486;-71
2022/09/15 08:44:19;;;;;;;8.80;5.57;;;;;;;;;;5005893;28;20036;-71
2022/09/15 08:46:51;;;;;;;11.93;5.53;;;;;;;;;;5003501;28;20034;-72
2022/09/15 08:49:43;;;;;;;10.13;5.15;;;;;;;;;;5003406;28;20070;-66
2022/09/15 08:52:39;;;;;;;6.78;4.80;;;;;;;;;;5002945;28;20026;-72
2022/09/15 08:55:19;;;;;;;7.47;5.07;;;;;;;;;;5001654;28;20030;-68
2022/09/15 08:57:45;;;;;;;7.88;5.13;;;;;;;;;;5003048;28;20580;-71
2022/09/15 09:00:15;;;;;;;9.68;5.07;;;;;;;;;;5023204;28;20585;-65
2022/09/15 09:02:59;;;;;;;6.93;4.43;;;;;;;;;;5001627;28;20053;-71
2022/09/15 09:05:46;;;;;;;8.52;4.70;;;;;;;;;;5004740;28;20454;-66
2022/09/15 09:08:29;;;;;;;10.15;5.38;;;;;;;;;;5003198;28;20038;-69
2022/09/15 09:11:15;;;;;;;8.30;4.88;;;;;;;;;;5004034;28;20061;-67
2022/09/15 09:14:04;;;;;;;9.30;5.10;;;;;;;;;;5002263;28;20057;-68
2022/09/15 09:16:52;;;;;;;7.78;4.80;;;;;;;;;;5003600;28;20022;-69
2022/09/15 09:19:24;;;;;;;10.70;5.38;;;;;;;;;;5004573;28;20104;-70
2022/09/15 09:21:57;;;;;;;10.13;6.35;;;;;;;;;;5001284;28;20030;-67
2022/09/15 09:24:44;;;;;;;9.85;5.95;;;;;;;;;;5000948;28;20490;-65
2022/09/15 09:27:17;;;;;;;13.98;6.45;;;;;;;;;;5001457;28;20556;-70
2022/09/15 09:29:49;;;;;;;;;;;;;;;;;;5001566;28;20382;-68
2022/09/15 09:32:26;;;;;;;10.30;6.63;;;;;;;;;;5002622;28;19913;-68
2022/09/15 09:34:53;;;;;;;7.82;6.20;;;;;;;;;;5004506;28;20061;-64
2022/09/15 09:37:18;;;;;;;10.15;6.68;;;;;;;;;;5002020;28;20563;-66
2022/09/15 09:39:45;;;;;;;8.90;6.28;;;;;;;;;;5003588;28;20062;-67
2022/09/15 09:42:19;;;;;;;9.95;6.20;;;;;;;;;;5001806;28;20038;-69
2022/09/15 09:44:45;;;;;;;10.52;6.82;;;;;;;;;;5003485;28;20030;-68
2022/09/15 09:47:12;;;;;;;8.90;6.28;;;;;;;;;;5000468;28;20371;-67
2022/09/15 09:49:48;;;;;;;12.90;6.57;;;;;;;;;;5006916;28;20134;-68
2022/09/15 09:52:37;;;;;;;13.25;6.60;;;;;;;;;;5005022;28;20031;-69
2022/09/15 09:55:20;;;;;;;10.90;6.70;;;;;;;;;;5006252;28;20393;-69
2022/09/15 09:57:46;;;;;;;11.07;6.18;;;;;;;;;;5005942;28;20046;-68
2022/09/15 10:00:36;;;;;;;11.48;6.00;;;;;;;;;;5009857;28;20044;-67
2022/09/15 10:03:22;;;;;;;10.07;6.03;;;;;;;;;;5006577;28;20076;-68
2022/09/15 10:06:06;;;;;;;7.75;5.72;;;;;;;;;;5001389;28;20026;-68
2022/09/15 10:08:32;;;;;;;7.28;5.32;;;;;;;;;;5003759;28;20165;-67
2022/09/15 10:11:15;;;;;;;9.73;5.18;;;;;;;;;;5007125;28;20104;-67
2022/09/15 10:13:51;;;;;;;9.48;5.63;;;;;;;;;;4999606;28;20038;-67
2022/09/15 10:16:18;;;;;;;8.40;5.50;;;;;;;;;;5002301;28;20037;-68
2022/09/15 10:18:44;;;;;;;8.15;5.03;;;;;;;;;;5002845;28;20030;-64
2022/09/15 10:21:12;;;;;;;6.25;4.78;;;;;;;;;;5000892;28;20057;-70
2022/09/15 10:23:38;;;;;;;8.80;5.05;;;;;;;;;;5003731;28;20026;-69
2022/09/15 10:26:32;;;;;;;8.18;5.20;;;;;;;;;;5017200;28;20504;-66
2022/09/15 10:29:16;;;;;;;11.00;5.00;;;;;;;;;;5000450;28;20099;-69
2022/09/15 10:31:43;;;;;;;6.95;4.53;;;;;;;;;;5001571;28;20029;-69
2022/09/15 10:34:38;;;;;;;7.20;4.95;;;;;;;;;;5004435;28;20034;-70
2022/09/15 10:37:28;;;;;;;8.10;5.65;;;;;;;;;;4984799;28;20034;-68
2022/09/15 10:40:07;;;;;;;7.32;4.80;;;;;;;;;;5002774;28;20071;-66
2022/09/15 10:42:49;;;;;;;7.35;5.13;;;;;;;;;;5000993;28;20108;-65
2022/09/15 10:45:33;;;;;;;7.05;5.00;;;;;;;;;;4992040;28;20138;-68
2022/09/15 10:48:21;;;;;;;7.63;4.95;;;;;;;;;;4999047;28;20049;-68
2022/09/15 10:51:14;;;;;;;10.00;5.13;;;;;;;;;;4999595;28;20053;-67
2022/09/15 10:53:58;;;;;;;9.50;6.13;;;;;;;;;;5000454;28;20046;-66
2022/09/15 10:56:33;;;;;;;7.35;5.47;;;;;;;;;;5000802;28;20182;-72
2022/09/15 10:59:32;;;;;;;6.70;5.07;;;;;;;;;;5003882;28;20394;-64
2022/09/15 11:02:07;;;;;;;7.32;5.72;;;;;;;;;;4997146;28;20088;-66
2022/09/15 11:04:45;;;;;;;8.77;5.72;;;;;;;;;;5000106;28;20030;-67
2022/09/15 11:07:37;;;;;;;6.70;4.85;;;;;;;;;;5002349;28;20125;-68
2022/09/15 11:10:02;;;;;;;7.68;5.25;;;;;;;;;;4998754;28;20034;-68
2022/09/15 11:12:37;;;;;;;8.20;5.35;;;;;;;;;;4998321;28;20061;-64
2022/09/15 11:15:28;;;;;;;6.35;5.03;;;;;;;;;;5000385;28;20077;-68
2022/09/15 11:18:28;;;;;;;9.38;5.35;;;;;;;;;;5000381;28;20113;-68
2022/09/15 11:21:11;;;;;;;9.27;5.25;;;;;;;;;;5004236;28;20042;-67
2022/09/15 11:23:57;;;;;;;7.85;4.95;;;;;;;;;;5002152;28;20069;-67
2022/09/15 11:26:32;;;;;;;10.30;5.78;;;;;;;;;;5003165;28;20052;-65
2022/09/15 11:29:24;;;;;;;10.70;4.90;;;;;;;;;;4998847;28;20128;-67
2022/09/15 11:31:56;;;;;;;8.73;5.13;;;;;;;;;;4997758;28;20037;-66
2022/09/15 11:34:32;;;;;;;7.25;4.93;;;;;;;;;;5001547;28;20022;-69
2022/09/15 11:37:39;;;;;;;8.00;5.13;;;;;;;;;;5001792;28;20393;-68
2022/09/15 11:40:24;;;;;;;7.05;5.10;;;;;;;;;;4920749;29;20385;-69
2022/09/15 11:43:02;;;;;;;7.43;3.88;;;;;;;;;;4998602;28;20038;-68
2022/09/15 11:45:34;;;;;;;5.97;3.22;;;;;;;;;;5003776;28;20541;-69
2022/09/15 11:48:18;;;;;;;4.78;3.00;;;;;;;;;;5005115;28;20449;-69
2022/09/15 11:50:47;;;;;;;4.43;3.08;;;;;;;;;;5004770;28;20367;-68
2022/09/15 11:53:15;;;;;;;5.47;2.90;;;;;;;;;;5004651;28;20062;-68
2022/09/15 11:55:50;;;;;;;2.90;2.63;;;;;;;;;;5004920;28;20549;-70
2022/09/15 11:58:24;;;;;;;3.67;2.65;;;;;;;;;;5002212;28;20026;-66
2022/09/15 12:01:12;;;;;;;3.65;2.63;;;;;;;;;;5000147;28;20096;-68
2022/09/15 12:03:41;;;;;;;4.55;3.15;;;;;;;;;;4999786;28;20136;-67
2022/09/15 12:06:17;;;;;;;4.40;2.05;;;;;;;;;;5002019;28;20038;-66
2022/09/15 12:08:55;;;;;;;3.05;2.30;;;;;;;;;;5001500;28;20038;-64
2022/09/15 12:11:24;;;;;;;4.93;2.10;;;;;;;;;;4999538;28;20030;-64
2022/09/15 12:13:51;;;;;;;3.85;2.10;;;;;;;;;;5003437;28;20034;-66
2022/09/15 12:16:17;;;;;;;2.95;2.10;;;;;;;;;;5002900;28;20020;-65
2022/09/15 12:19:13;;;;;;;4.38;2.25;;;;;;;;;;5007824;28;20042;-68
2022/09/15 12:21:38;;;;;;;4.88;1.95;;;;;;;;;;5001915;28;20402;-67
2022/09/15 12:24:06;;;;;;;3.72;2.05;;;;;;;;;;5001473;28;20038;-63
2022/09/15 12:26:33;;;;;;;3.08;2.22;;;;;;;;;;4999711;28;20065;-65
2022/09/15 12:29:03;;;;;;;4.57;2.13;;;;;;;;;;4989377;28;20041;-71
2022/09/15 12:31:37;;;;;;;6.30;2.22;;;;;;;;;;5003320;28;20118;-69
2022/09/15 12:34:25;;;;;;;3.25;2.20;;;;;;;;;;5002982;28;20030;-68
2022/09/15 12:37:14;;;;;;;2.78;1.95;;;;;;;;;;5007748;28;20136;-67
2022/09/15 12:39:41;;;;;;;5.50;2.00;;;;;;;;;;5000135;28;20230;-66
2022/09/15 12:42:13;;;;;;;3.95;1.90;;;;;;;;;;5006164;28;20064;-66
2022/09/15 12:44:47;;;;;;;2.00;1.80;;;;;;;;;;5002732;28;20046;-63
2022/09/15 12:47:24;;;;;;;3.15;2.00;;;;;;;;;;5002034;28;20034;-66
2022/09/15 12:49:52;;;;;;;3.55;2.10;;;;;;;;;;5004542;28;20490;-67
2022/09/15 12:52:20;;;;;;;3.80;2.22;;;;;;;;;;5000752;28;20037;-67
2022/09/15 12:54:52;;;;;;;4.57;2.50;;;;;;;;;;5005952;28;20044;-69
2022/09/15 12:57:28;;;;;;;7.57;2.20;;;;;;;;;;5004851;28;20038;-69
2022/09/15 13:00:36;;;;;;;3.67;2.35;;;;;;;;;;5004193;28;20028;-67
2022/09/15 13:03:04;;;;;;;4.97;1.90;;;;;;;;;;5004267;28;20581;-68
2022/09/15 13:05:42;;;;;;;3.22;2.20;;;;;;;;;;5004629;28;20089;-68
2022/09/15 13:08:14;;;;;;;2.65;2.10;;;;;;;;;;5005467;28;20062;-69
2022/09/15 13:10:42;;;;;;;2.45;2.10;;;;;;;;;;5002163;28;20072;-67
2022/09/15 13:13:19;;;;;;;3.67;2.30;;;;;;;;;;5004066;28;20029;-69
2022/09/15 13:15:47;;;;;;;4.38;1.80;;;;;;;;;;5001709;28;20042;-68
2022/09/15 13:18:14;;;;;;;3.95;2.30;;;;;;;;;;5004457;28;20421;-71
2022/09/15 13:20:52;;;;;;;4.72;2.28;;;;;;;;;;5001709;28;20038;-74
2022/09/15 13:23:22;;;;;;;3.03;1.88;;;;;;;;;;5002057;28;20545;-68
2022/09/15 13:25:49;;;;;;;4.50;2.20;;;;;;;;;;5008377;28;20042;-70
2022/09/15 13:28:16;;;;;;;3.25;2.30;;;;;;;;;;5006371;28;20026;-69
2022/09/15 13:30:46;;;;;;;3.70;2.08;;;;;;;;;;5007614;28;20030;-69
2022/09/15 13:33:41;;;;;;;4.78;2.25;;;;;;;;;;5005049;28;20040;-69
2022/09/15 13:36:32;;;;;;;3.70;2.08;;;;;;;;;;4991136;28;20072;-64
2022/09/15 13:39:25;;;;;;;2.47;1.75;;;;;;;;;;4994033;28;20128;-68
2022/09/15 13:42:00;;;;;;;3.60;1.90;;;;;;;;;;5005561;28;20107;-68
2022/09/15 13:44:47;;;;;;;3.72;2.25;;;;;;;;;;5009077;28;20513;-67
2022/09/15 13:47:32;;;;;;;3.42;1.90;;;;;;;;;;5002382;28;20029;-68
2022/09/15 13:50:19;;;;;;;4.53;2.88;;;;;;;;;;5010142;28;20537;-67
2022/09/15 13:52:57;;;;;;;4.30;2.10;;;;;;;;;;5002057;28;20030;-67
2022/09/15 13:55:26;;;;;;;5.35;2.00;;;;;;;;;;5007157;28;20342;-70
2022/09/15 13:57:57;;;;;;;4.97;2.08;;;;;;;;;;5009196;28;20033;-68
2022/09/15 14:00:26;;;;;;;2.85;2.03;;;;;;;;;;5005279;28;20041;-69
2022/09/15 14:03:00;;;;;;;3.03;2.30;;;;;;;;;;4999280;28;20117;-69
2022/09/15 14:05:30;;;;;;;2.53;1.88;;;;;;;;;;5003374;28;20118;-68
2022/09/15 14:08:03;;;;;;;3.90;2.10;;;;;;;;;;4998954;28;20038;-68
2022/09/15 14:10:32;;;;;;;1.77;1.45;;;;;;;;;;5005237;28;20028;-70
2022/09/15 14:12:59;;;;;;;5.18;1.90;;;;;;;;;;5003406;28;20116;-69
2022/09/15 14:15:26;;;;;;;2.65;1.90;;;;;;;;;;4999918;28;21566;-66
2022/09/15 14:17:51;;;;;;;3.90;1.60;;;;;;;;;;5007195;28;20041;-68
2022/09/15 14:20:30;;;;;;;2.35;1.98;;;;;;;;;;5004140;28;20052;-68
2022/09/15 14:22:57;;;;;;;3.65;1.80;;;;;;;;;;5005347;28;20044;-68
2022/09/15 14:25:22;;;;;;;3.35;1.67;;;;;;;;;;5006043;28;20044;-63
2022/09/15 14:27:51;;;;;;;2.42;1.63;;;;;;;;;;5002602;28;20218;-67
2022/09/15 14:30:26;;;;;;;5.43;1.73;;;;;;;;;;5006817;28;20026;-68
2022/09/15 14:32:55;;;;;;;2.95;1.77;;;;;;;;;;5008141;28;20062;-67
2022/09/15 14:35:24;;;;;;;2.72;1.70;;;;;;;;;;5008026;28;20040;-67
2022/09/15 14:37:55;;;;;;;3.28;1.70;;;;;;;;;;5001264;28;20065;-68
2022/09/15 14:40:38;;;;;;;2.90;1.50;;;;;;;;;;5002860;28;20088;-66
2022/09/15 14:43:29;;;;;;;4.82;1.65;;;;;;;;;;5005985;28;20026;-68
2022/09/15 14:45:54;;;;;;;3.75;1.63;;;;;;;;;;5006853;28;20457;-66
2022/09/15 14:48:26;;;;;;;3.33;1.60;;;;;;;;;;5007273;28;20109;-68
2022/09/15 14:51:07;;;;;;;3.88;1.60;;;;;;;;;;5005011;28;20038;-67
2022/09/15 14:53:36;;;;;;;3.90;1.75;;;;;;;;;;5007721;28;20087;-68
2022/09/15 14:56:10;;;;;;;3.55;1.67;;;;;;;;;;5005462;28;20075;-68
2022/09/15 14:58:38;;;;;;;2.67;1.40;;;;;;;;;;5008782;28;20497;-67
2022/09/15 15:01:06;;;;;;;3.15;1.40;;;;;;;;;;5015145;28;20124;-68
2022/09/15 15:03:44;;;;;;;2.88;1.60;;;;;;;;;;5006345;28;20062;-69
2022/09/15 15:06:14;;;;;;;3.28;1.42;;;;;;;;;;5004506;28;20134;-68
2022/09/15 15:09:04;;;;;;;2.83;1.15;;;;;;;;;;5004563;28;20052;-68